Latest Weather Observations for Hindmarsh Island

IDS60901

Issued at 7:51 pm CST Friday 26 August 2016 (issued every 10 minutes, with the page automatically refreshed every 10 minutes)

About weather observations | Map of Adelaide area stations | Latest observations for Adelaide area | Other Formats
Station Details ID: 023894 Name: HINDMARSH ISLAND AWS Lat: -35.52 Lon: 138.82 Height: 11.0 m
Data from the previous 72 hours. | See also: Recent months at Hindmarsh Island
Date/Time
CST
Temp
°C
App
Temp
°C
Dew
Point
°C
Rel
Hum
%
Delta-T
°C
Wind Press
QNH
hPa
Press
MSL
hPa
Rain since
9am
mm
Dir  Spd
km/h
Gust
km/h
Spd
kts
Gust
kts
26/07:30pm 11.0 8.4 4.0 62 3.1 NW 7 13 4 7 1023.9 - 0.0
26/07:00pm 11.6 8.2 4.1 60 3.4 WNW 11 15 6 8 1024.0 - 0.0
26/06:30pm 11.4 7.9 3.4 58 3.5 NW 11 11 6 6 1023.6 - 0.0
26/06:00pm 11.7 8.8 2.7 54 3.9 WNW 7 9 4 5 1023.4 1023.3 0.0
26/05:30pm 12.1 8.4 2.3 51 4.2 W 11 15 6 8 1023.1 - 0.0
26/05:00pm 13.1 7.8 1.8 46 4.9 W 19 24 10 13 1023.2 - 0.0
26/04:30pm 13.0 8.5 2.0 47 4.8 W 15 24 8 13 1022.7 - 0.0
26/04:00pm 13.4 8.9 2.3 47 4.9 WNW 15 20 8 11 1022.7 - 0.0
26/03:30pm 13.4 9.0 2.6 48 4.8 W 15 20 8 11 1022.7 - 0.0
26/03:00pm 13.5 9.4 2.4 47 4.8 WNW 13 20 7 11 1022.8 1022.8 0.0
26/02:30pm 13.4 9.2 3.8 52 4.3 NW 15 22 8 12 1023.0 - 0.0
26/02:00pm 13.6 8.5 3.1 49 4.7 SW 19 22 10 12 1023.1 - 0.0
26/01:30pm 13.9 9.5 2.8 47 4.9 WNW 15 19 8 10 1023.3 - 0.0
26/01:00pm 13.6 9.5 4.5 54 4.2 SW 15 20 8 11 1023.5 - 0.0
26/12:30pm 13.0 8.1 4.2 55 4.0 SW 19 22 10 12 1024.0 - 0.0
26/12:00pm 13.1 9.1 2.9 50 4.5 W 13 17 7 9 1024.3 1024.3 0.0
26/11:30am 13.0 8.6 2.8 50 4.5 W 15 20 8 11 1024.8 - 0.0
26/11:00am 13.2 8.9 3.0 50 4.5 W 15 19 8 10 1024.9 - 0.0
26/10:30am 13.5 9.5 2.7 48 4.8 W 13 19 7 10 1024.9 - 0.0
26/10:00am 13.2 8.9 3.3 51 4.4 W 15 20 8 11 1024.9 - 0.0
26/09:30am 12.5 7.5 3.7 55 3.9 W 19 26 10 14 1025.1 - 0.0
26/09:00am 11.9 7.1 4.4 60 3.4 W 19 24 10 13 1025.0 1024.9 0.2
26/08:30am 11.5 6.6 5.2 65 2.9 W 20 28 11 15 1024.8 - 0.2
26/08:00am 11.1 6.8 5.2 67 2.7 W 17 24 9 13 1024.5 - 0.2
26/07:30am 11.1 6.5 5.4 68 2.6 W 19 26 10 14 1024.3 - 0.2
26/07:00am 10.8 6.5 5.1 68 2.6 W 17 26 9 14 1024.1 - 0.2
26/06:30am 10.4 6.8 5.0 69 2.4 WNW 13 17 7 9 1023.8 - 0.2
26/06:00am 11.0 7.1 5.5 69 2.5 W 15 20 8 11 1023.5 1023.4 0.2
26/05:30am 10.5 6.6 5.5 71 2.3 W 15 20 8 11 1023.1 - 0.2
26/05:00am 10.2 7.1 5.6 73 2.1 WNW 11 17 6 9 1022.9 - 0.2
26/04:30am 10.4 6.9 5.6 72 2.2 W 13 20 7 11 1022.7 - 0.2
26/04:00am 9.9 7.9 6.1 77 1.8 WNW 6 9 3 5 1022.6 - 0.2
26/03:30am 9.9 7.3 6.1 77 1.8 WNW 9 13 5 7 1022.6 - 0.2
26/03:00am 10.0 7.4 6.3 78 1.7 WNW 9 11 5 6 1022.7 1022.8 0.2
26/02:30am 9.9 7.6 5.7 75 1.9 NW 7 9 4 5 1022.8 - 0.2
26/02:00am 10.7 7.4 6.5 75 2.0 S 13 15 7 8 1022.9 - 0.2
26/01:30am 11.3 6.8 6.2 71 2.4 S 19 24 10 13 1022.8 - 0.2
26/01:00am 11.2 6.4 5.7 69 2.5 S 20 24 11 13 1022.7 - 0.2
26/12:30am 11.0 6.3 6.0 71 2.3 S 20 26 11 14 1022.6 - 0.2
26/12:00am 10.9 6.5 6.6 75 2.0 S 19 20 10 11 1022.7 1022.7 0.2
 
Date/Time
CST
Temp
°C
App
Temp
°C
Dew
Point
°C
Rel
Hum
%
Delta-T
°C
Wind Press
QNH
hPa
Press
MSL
hPa
Rain since
9am
mm
Dir  Spd
km/h
Gust
km/h
Spd
kts
Gust
kts
25/11:30pm 10.9 6.6 6.8 76 1.9 S 19 22 10 12 1022.8 - 0.2
25/11:00pm 11.3 6.1 5.4 67 2.7 SSW 22 26 12 14 1022.5 - 0.2
25/10:30pm 11.2 5.5 4.7 64 2.9 SSW 24 30 13 16 1022.6 - 0.2
25/10:00pm 11.4 5.7 5.1 65 2.9 SSW 24 32 13 17 1022.6 - 0.2
25/09:30pm 10.9 6.3 5.4 69 2.5 SW 19 22 10 12 1022.6 - 0.2
25/09:00pm 11.0 8.7 7.3 78 1.8 W 9 13 5 7 1022.6 1022.6 0.2
25/08:30pm 10.9 8.3 7.6 80 1.6 W 11 15 6 8 1022.5 - 0.2
25/08:00pm 11.1 7.7 7.6 79 1.7 W 15 22 8 12 1022.5 - 0.2
25/07:30pm 11.4 7.4 6.7 73 2.2 SSW 17 20 9 11 1022.1 - 0.2
25/07:00pm 11.3 6.7 6.4 72 2.3 SSW 20 26 11 14 1021.9 - 0.2
25/06:30pm 11.2 5.6 7.1 76 2.0 SSW 26 32 14 17 1021.5 - 0.2
25/06:00pm 10.8 7.7 7.3 79 1.7 SSW 13 28 7 15 1021.2 1021.3 0.2
25/05:30pm 10.3 6.8 7.4 82 1.4 SSW 15 19 8 10 1021.2 - 0.2
25/05:00pm 11.8 6.9 7.1 73 2.3 SSW 22 26 12 14 1020.8 - 0.0
25/04:30pm 12.7 7.8 6.7 67 2.9 SW 22 26 12 14 1020.5 - 0.0
25/04:00pm 13.2 8.7 7.0 66 3.0 SW 20 24 11 13 1020.3 - 0.0
25/03:30pm 13.2 8.3 6.8 65 3.1 WSW 22 28 12 15 1020.2 - 0.0
25/03:00pm 13.6 8.5 7.6 67 2.9 SSW 24 30 13 16 1020.0 1020.0 0.0
25/02:30pm 12.7 8.2 7.0 68 2.7 S 20 24 11 13 1020.0 - 0.0
25/02:00pm 12.3 8.2 8.0 75 2.1 S 19 22 10 12 1020.0 - 0.0
25/01:30pm 11.4 5.0 8.6 83 1.4 S 32 39 17 21 1020.0 - 0.0
25/01:29pm 11.4 4.4 8.6 83 1.4 S 35 39 19 21 1020.0 - 0.0
25/01:18pm 11.3 3.3 7.6 78 1.8 S 39 52 21 28 1019.8 - 0.0
25/01:16pm 12.5 3.7 7.2 70 2.6 SSW 43 48 23 26 1019.8 - 0.0
25/01:13pm 12.3 5.4 7.4 72 2.4 SSW 33 50 18 27 1019.8 - 0.0
25/01:00pm 14.7 9.1 5.5 54 4.4 SW 24 30 13 16 1019.9 - 0.0
25/12:30pm 14.6 9.9 5.1 53 4.5 SSW 19 24 10 13 1020.3 - 0.0
25/12:00pm 14.1 9.1 4.7 53 4.3 SW 20 26 11 14 1020.4 1020.5 0.0
25/11:30am 14.2 9.5 5.3 55 4.2 SW 19 24 10 13 1020.5 - 0.0
25/11:00am 13.7 10.1 5.1 56 4.0 SW 13 19 7 10 1020.6 - 0.0
25/10:30am 13.4 9.8 4.8 56 4.0 SW 13 19 7 10 1020.6 - 0.0
25/10:00am 12.9 9.6 4.6 57 3.8 WSW 11 15 6 8 1020.5 - 0.0
25/09:30am 12.1 9.1 4.3 59 3.5 NW 9 11 5 6 1020.4 - 0.0
25/09:00am 10.9 8.0 4.6 65 2.8 NNW 9 13 5 7 1020.2 1020.2 0.0
25/08:30am 9.5 6.3 4.9 73 2.1 NNW 11 13 6 7 1019.9 - 0.0
25/08:00am 7.9 4.9 4.3 78 1.6 NNW 9 13 5 7 1019.6 - 0.0
25/07:30am 6.0 3.2 3.2 82 1.2 NW 7 9 4 5 1019.4 - 0.0
25/07:00am 5.3 1.3 2.7 83 1.1 N 13 17 7 9 1019.1 - 0.0
25/06:30am 5.0 1.4 2.7 85 0.9 NW 11 13 6 7 1018.9 - 0.0
25/06:00am 5.5 1.9 3.2 85 0.9 NNW 11 11 6 6 1018.4 1018.3 0.0
25/05:30am 5.5 3.2 3.0 84 1.0 NNW 4 7 2 4 1018.3 - 0.0
25/05:00am 6.1 2.6 3.6 84 1.1 NNW 11 11 6 6 1017.9 - 0.0
25/04:30am 6.0 2.5 3.7 85 1.0 NNW 11 13 6 7 1017.7 - 0.0
25/04:00am 5.8 2.3 3.3 84 1.0 N 11 13 6 7 1017.5 - 0.0
25/03:30am 6.1 3.0 3.8 85 1.0 N 9 13 5 7 1017.4 - 0.0
25/03:00am 6.3 3.2 3.6 83 1.1 N 9 11 5 6 1017.4 1017.4 0.0
25/02:30am 6.8 3.0 3.9 82 1.2 NE 13 15 7 8 1017.6 - 0.0
25/02:00am 6.3 2.6 2.2 75 1.7 E 11 15 6 8 1017.6 - 0.0
25/01:30am 8.3 5.5 3.2 70 2.2 ESE 7 13 4 7 1017.5 - 0.0
25/01:00am 8.3 5.1 3.2 70 2.2 ESE 9 11 5 6 1017.6 - 0.0
25/12:30am 8.7 5.5 3.3 69 2.3 SE 9 11 5 6 1017.5 - 0.0
25/12:00am 9.4 6.4 4.2 70 2.3 SE 9 11 5 6 1017.5 1017.5 0.0
 
Date/Time
CST
Temp
°C
App
Temp
°C
Dew
Point
°C
Rel
Hum
%
Delta-T
°C
Wind Press
QNH
hPa
Press
MSL
hPa
Rain since
9am
mm
Dir  Spd
km/h
Gust
km/h
Spd
kts
Gust
kts
24/11:30pm 8.4 5.2 3.3 70 2.2 ESE 9 11 5 6 1017.6 - 0.0
24/11:00pm 10.1 6.0 4.3 67 2.6 SE 15 17 8 9 1017.6 - 0.0
24/10:30pm 10.4 5.9 4.3 66 2.7 SSE 17 20 9 11 1017.8 - 0.0
24/10:00pm 10.6 5.7 4.3 65 2.8 SSE 19 22 10 12 1017.8 - 0.0
24/09:30pm 10.6 6.2 4.5 66 2.7 SSE 17 20 9 11 1017.7 - 0.0
24/09:00pm 10.9 5.9 4.4 64 2.9 SE 20 24 11 13 1017.6 1017.5 0.0
24/08:30pm 10.7 5.9 4.4 65 2.8 SSE 19 22 10 12 1017.3 - 0.0
24/08:00pm 10.6 6.2 4.5 66 2.7 SSE 17 20 9 11 1017.2 - 0.0
24/07:30pm 10.5 6.0 4.4 66 2.7 SSE 17 22 9 12 1017.2 - 0.0
24/07:00pm 10.8 6.3 4.3 64 2.9 SE 17 20 9 11 1016.9 - 0.0
24/06:30pm 10.8 5.6 3.6 61 3.2 SSE 20 24 11 13 1016.6 - 0.0
24/06:00pm 11.0 5.2 4.5 64 2.9 SSE 24 30 13 16 1016.2 1016.2 0.0
24/05:30pm 11.4 5.3 4.6 63 3.1 SE 26 30 14 16 1015.8 - 0.0
24/05:00pm 11.9 5.5 3.4 56 3.8 SSE 26 32 14 17 1015.6 - 0.0
24/04:30pm 12.3 6.0 4.0 57 3.7 SE 26 32 14 17 1015.2 - 0.0
24/04:00pm 12.7 6.2 4.7 58 3.7 SE 28 33 15 18 1015.0 - 0.0
24/03:30pm 12.9 5.9 4.1 55 4.0 SSE 30 33 16 18 1014.8 - 0.0
24/03:00pm 13.0 6.3 5.7 61 3.4 SSE 30 35 16 19 1014.8 1014.8 0.0
24/02:30pm 13.5 7.4 6.6 63 3.3 SSE 28 33 15 18 1015.0 - 0.0
24/02:00pm 13.5 7.2 5.7 59 3.7 SSE 28 32 15 17 1015.1 - 0.0
24/01:30pm 13.7 7.7 7.0 64 3.3 SSE 28 32 15 17 1015.3 - 0.0
24/01:00pm 13.7 8.2 5.8 59 3.7 SSE 24 28 13 15 1015.6 - 0.0
24/12:30pm 13.9 9.4 7.0 63 3.4 SSE 20 26 11 14 1015.8 - 0.0
24/12:00pm 14.4 10.8 6.7 60 3.7 SE 15 19 8 10 1015.9 1016.0 0.0
24/11:30am 13.6 9.9 6.2 61 3.5 SSE 15 17 8 9 1016.2 - 0.0
24/11:00am 13.5 11.4 6.6 63 3.3 ESE 7 11 4 6 1016.5 - 0.0
24/10:30am 12.1 9.6 6.4 68 2.7 SSE 9 11 5 6 1016.5 - 0.0
24/10:00am 11.7 9.5 6.0 68 2.7 ESE 7 11 4 6 1016.6 - 0.0
24/09:30am 11.5 9.5 7.2 75 2.1 NE 7 13 4 7 1016.7 - 0.0
24/09:00am 10.3 7.9 6.8 79 1.6 E 9 11 5 6 1016.8 1016.8 0.2
24/08:30am 9.2 6.2 5.9 80 1.5 E 11 13 6 7 1016.8 - 0.2
24/08:00am 8.8 7.1 5.9 82 1.3 ENE 4 7 2 4 1016.8 - 0.2
24/07:30am 7.7 6.7 5.5 86 1.0 CALM 0 0 0 0 1016.5 - 0.2
24/07:00am 5.6 3.1 3.8 88 0.8 NW 6 7 3 4 1016.3 - 0.2
24/06:30am 6.1 3.7 4.1 87 0.9 W 6 7 3 4 1016.0 - 0.0
24/06:00am 6.4 4.0 4.2 86 0.9 WNW 6 7 3 4 1015.8 1015.8 0.0
24/05:30am 6.8 4.3 4.6 86 1.0 NW 7 7 4 4 1015.8 - 0.0
24/05:00am 6.7 4.2 4.5 86 1.0 WNW 7 9 4 5 1015.7 - 0.0
24/04:30am 6.5 4.0 4.5 87 0.9 W 7 9 4 5 1015.6 - 0.0
24/04:00am 6.5 3.6 4.7 88 0.8 W 9 11 5 6 1015.5 - 0.0
24/03:30am 6.7 4.2 4.9 88 0.8 W 7 7 4 4 1015.4 - 0.0
24/03:00am 7.0 4.7 5.0 87 0.9 WNW 6 9 3 5 1015.6 1015.6 0.0
24/02:30am 7.2 4.8 5.2 87 0.9 WNW 7 9 4 5 1015.9 - 0.0
24/02:00am 7.3 4.4 4.4 82 1.3 N 9 11 5 6 1016.1 - 0.0
24/01:30am 7.3 4.3 4.3 81 1.3 NE 9 9 5 5 1016.1 - 0.0
24/01:00am 7.6 3.8 4.0 78 1.6 ENE 13 13 7 7 1016.3 - 0.0
24/12:30am 7.9 4.6 4.5 79 1.5 ENE 11 13 6 7 1016.3 - 0.0
24/12:00am 8.0 4.8 5.1 82 1.3 NE 11 13 6 7 1016.5 1016.6 0.0
 
Date/Time
CST
Temp
°C
App
Temp
°C
Dew
Point
°C
Rel
Hum
%
Delta-T
°C
Wind Press
QNH
hPa
Press
MSL
hPa
Rain since
9am
mm
Dir  Spd
km/h
Gust
km/h
Spd
kts
Gust
kts
23/11:30pm 7.7 4.5 5.2 84 1.1 N 11 13 6 7 1016.7 - 0.0
23/11:00pm 8.4 5.4 5.9 84 1.1 NNE 11 11 6 6 1016.8 - 0.0
23/10:30pm 8.0 4.7 4.8 80 1.4 ENE 11 15 6 8 1017.0 - 0.0
23/10:00pm 8.8 5.3 5.5 80 1.5 NE 13 17 7 9 1016.9 - 0.0
23/09:30pm 8.9 5.4 5.5 79 1.5 NE 13 15 7 8 1016.7 - 0.0
23/09:00pm 9.3 6.2 5.7 78 1.6 E 11 13 6 7 1016.8 1016.8 0.0
23/08:30pm 11.0 6.8 7.3 78 1.8 SE 19 20 10 11 1016.6 - 0.0
23/08:00pm 9.7 6.7 6.1 78 1.7 ESE 11 15 6 8 1016.6 - 0.0

Latest Capital City Observations: Canberra | Sydney | Melbourne | Brisbane | Adelaide | Perth | Hobart | Darwin

Other Formats:

Comma delimited format used in spreadsheet applications
http://www.bom.gov.au/fwo/IDS60901/IDS60901.94677.axf

JavaScript Object Notation format (JSON) in row-major order
http://www.bom.gov.au/fwo/IDS60901/IDS60901.94677.json